createdAt,value
2018-02-24T00:00:00.090Z,4.00
2018-02-24T00:02:26.682Z,4.20
2018-02-24T00:04:53.255Z,5.18
2018-02-24T00:07:19.848Z,5.10
2018-02-24T00:09:47.183Z,5.00
2018-02-24T00:12:13.760Z,6.20
2018-02-24T00:14:40.491Z,4.82
2018-02-24T00:17:07.026Z,4.35
2018-02-24T00:19:33.629Z,3.45
2018-02-24T00:22:00.228Z,4.10
2018-02-24T00:24:26.814Z,5.85
2018-02-24T00:26:53.447Z,5.68
2018-02-24T00:29:20.043Z,5.15
2018-02-24T00:31:46.619Z,5.55
2018-02-24T00:34:13.255Z,4.82
2018-02-24T00:36:39.906Z,4.60
2018-02-24T00:39:07.153Z,4.22
2018-02-24T00:41:33.787Z,4.00
2018-02-24T00:44:00.371Z,6.47
2018-02-24T00:46:26.946Z,4.57
2018-02-24T00:48:53.542Z,4.93
2018-02-24T00:51:20.733Z,3.40
2018-02-24T00:53:47.320Z,5.05
2018-02-24T00:56:13.917Z,4.03
2018-02-24T00:58:40.506Z,4.32
2018-02-24T01:01:07.082Z,5.25
2018-02-24T01:03:33.706Z,5.57
2018-02-24T01:06:00.287Z,4.40
2018-02-24T01:08:26.877Z,4.53
2018-02-24T01:10:53.520Z,4.43
2018-02-24T01:13:20.095Z,4.25
2018-02-24T01:15:46.697Z,2.87
2018-02-24T01:18:13.275Z,4.10
2018-02-24T01:20:39.865Z,4.43
2018-02-24T01:23:06.482Z,4.85
2018-02-24T01:25:33.150Z,4.43
2018-02-24T01:27:59.734Z,4.07
2018-02-24T01:30:26.417Z,3.22
2018-02-24T01:32:53.040Z,4.70
2018-02-24T01:35:19.638Z,5.00
2018-02-24T01:37:46.220Z,4.53
2018-02-24T01:40:12.795Z,4.20
2018-02-24T01:42:39.370Z,3.72
2018-02-24T01:45:06.020Z,3.33
2018-02-24T01:47:32.596Z,4.70
2018-02-24T01:49:59.188Z,4.97
2018-02-24T01:52:25.852Z,4.15
2018-02-24T01:54:52.436Z,3.50
2018-02-24T01:57:19.100Z,5.53
2018-02-24T01:59:45.689Z,5.20
2018-02-24T02:02:12.282Z,5.10
2018-02-24T02:04:38.873Z,4.18
2018-02-24T02:07:05.462Z,4.22
2018-02-24T02:09:32.060Z,6.40
2018-02-24T02:11:58.730Z,6.07
2018-02-24T02:14:25.351Z,4.35
2018-02-24T02:16:51.992Z,5.37
2018-02-24T02:19:18.627Z,5.32
2018-02-24T02:21:45.211Z,7.97
2018-02-24T02:24:11.791Z,4.82
2018-02-24T02:26:38.386Z,4.15
2018-02-24T02:29:04.960Z,6.85
2018-02-24T02:31:31.772Z,5.28
2018-02-24T02:33:58.369Z,3.95
2018-02-24T02:36:24.993Z,4.90
2018-02-24T02:38:51.568Z,5.53
2018-02-24T02:41:18.158Z,5.03
2018-02-24T02:43:44.788Z,5.97
2018-02-24T02:46:11.390Z,4.95
2018-02-24T02:48:37.965Z,5.28
2018-02-24T02:51:04.554Z,5.12
2018-02-24T02:53:31.145Z,6.35
2018-02-24T02:55:57.736Z,6.95
2018-02-24T02:58:24.322Z,4.75
2018-02-24T03:00:50.899Z,4.90
2018-02-24T03:03:17.479Z,6.05
2018-02-24T03:05:44.084Z,7.43
2018-02-24T03:08:10.766Z,5.78
2018-02-24T03:10:37.390Z,5.30
2018-02-24T03:13:03.977Z,5.95
2018-02-24T03:15:30.673Z,4.87
2018-02-24T03:17:57.266Z,4.95
2018-02-24T03:20:23.854Z,7.30
2018-02-24T03:22:50.443Z,5.90
2018-02-24T03:25:17.117Z,6.10
2018-02-24T03:27:43.706Z,7.30
2018-02-24T03:30:10.284Z,5.97
2018-02-24T03:32:36.863Z,5.80
2018-02-24T03:35:03.435Z,6.72
2018-02-24T03:37:30.030Z,8.38
2018-02-24T03:39:56.710Z,6.62
2018-02-24T03:42:23.305Z,7.55
2018-02-24T03:44:49.879Z,6.20
2018-02-24T03:47:16.469Z,5.15
2018-02-24T03:49:43.062Z,4.85
2018-02-24T03:52:09.640Z,5.05
2018-02-24T03:54:36.219Z,5.22
2018-02-24T03:57:02.800Z,6.45
2018-02-24T03:59:29.390Z,5.78
2018-02-24T04:01:55.977Z,5.05
2018-02-24T04:04:22.575Z,6.82
2018-02-24T04:06:49.173Z,6.82
2018-02-24T04:09:15.839Z,6.45
2018-02-24T04:11:42.433Z,6.45
2018-02-24T04:14:09.023Z,5.40
2018-02-24T04:16:35.613Z,5.78
2018-02-24T04:19:02.214Z,6.05
2018-02-24T04:21:28.798Z,5.53
2018-02-24T04:23:55.371Z,6.00
2018-02-24T04:26:21.947Z,4.50
2018-02-24T04:28:48.531Z,6.35
2018-02-24T04:31:15.112Z,5.80
2018-02-24T04:33:41.702Z,6.95
2018-02-24T04:36:08.289Z,6.65
2018-02-24T04:38:34.868Z,7.28
2018-02-24T04:41:01.452Z,5.15
2018-02-24T04:43:28.029Z,6.35
2018-02-24T04:45:54.621Z,5.45
2018-02-24T04:48:21.210Z,7.07
2018-02-24T04:50:47.793Z,7.78
2018-02-24T04:53:14.393Z,6.28
2018-02-24T04:55:41.012Z,5.65
2018-02-24T04:58:07.652Z,6.05
2018-02-24T05:00:34.300Z,7.82
2018-02-24T05:03:00.934Z,8.93
2018-02-24T05:05:27.507Z,5.93
2018-02-24T05:07:54.194Z,8.15
2018-02-24T05:10:20.846Z,6.97
2018-02-24T05:12:47.427Z,9.23
2018-02-24T05:15:14.106Z,8.60
2018-02-24T05:17:40.754Z,5.65
2018-02-24T05:20:07.350Z,3.92
2018-02-24T05:22:33.922Z,5.80
2018-02-24T05:25:00.509Z,6.35
2018-02-24T05:27:27.088Z,5.82
2018-02-24T05:29:53.682Z,4.15
2018-02-24T05:32:20.270Z,5.18
2018-02-24T05:34:46.900Z,5.90
2018-02-24T05:37:13.544Z,6.37
2018-02-24T05:39:40.134Z,5.55
2018-02-24T05:42:06.708Z,6.47
2018-02-24T05:44:33.284Z,6.30
2018-02-24T05:46:59.896Z,4.53
2018-02-24T05:49:27.100Z,6.90
2018-02-24T05:51:53.755Z,4.85
2018-02-24T05:54:20.396Z,4.32
2018-02-24T05:56:46.990Z,4.97
2018-02-24T05:59:13.583Z,6.35
2018-02-24T06:01:40.180Z,6.53
2018-02-24T06:04:06.752Z,5.18
2018-02-24T06:06:33.371Z,6.68
2018-02-24T06:08:59.953Z,6.28
2018-02-24T06:11:26.550Z,5.68
2018-02-24T06:13:53.128Z,5.45
2018-02-24T06:16:19.811Z,7.40
2018-02-24T06:18:46.470Z,4.85
2018-02-24T06:21:13.091Z,4.75
2018-02-24T06:23:39.686Z,6.60
2018-02-24T06:26:06.269Z,5.53
2018-02-24T06:28:32.909Z,5.35
2018-02-24T06:30:59.483Z,4.30
2018-02-24T06:33:26.082Z,5.32
2018-02-24T06:35:52.675Z,6.50
2018-02-24T06:38:19.247Z,4.90
2018-02-24T06:40:45.833Z,6.15
2018-02-24T06:43:12.427Z,4.45
2018-02-24T06:45:39.062Z,4.68
2018-02-24T06:48:05.697Z,6.50
2018-02-24T06:50:32.334Z,5.18
2018-02-24T06:52:58.922Z,4.50
2018-02-24T06:55:25.495Z,6.40
2018-02-24T06:57:52.141Z,8.48
2018-02-24T07:00:18.768Z,7.93
2018-02-24T07:02:45.362Z,7.70
2018-02-24T07:05:11.943Z,8.52
2018-02-24T07:07:38.541Z,7.43
2018-02-24T07:10:05.135Z,6.87
2018-02-24T07:12:32.779Z,6.37
2018-02-24T07:14:59.418Z,6.47
2018-02-24T07:17:25.996Z,6.25
2018-02-24T07:19:53.086Z,4.62
2018-02-24T07:22:19.678Z,7.60
2018-02-24T07:24:46.360Z,6.22
2018-02-24T07:27:12.957Z,7.78
2018-02-24T07:29:39.544Z,5.75
2018-02-24T07:32:06.140Z,7.28
2018-02-24T07:34:32.720Z,7.07
2018-02-24T07:36:59.350Z,7.00
2018-02-24T07:39:25.927Z,5.35
2018-02-24T07:41:52.526Z,6.68
2018-02-24T07:44:19.106Z,7.32
2018-02-24T07:46:45.790Z,3.95
2018-02-24T07:49:12.430Z,6.62
2018-02-24T07:51:39.154Z,5.85
2018-02-24T07:54:05.791Z,4.90
2018-02-24T07:56:32.442Z,5.97
2018-02-24T07:58:59.025Z,6.20
2018-02-24T08:01:25.604Z,4.90
2018-02-24T08:03:52.180Z,5.80
2018-02-24T08:06:18.770Z,6.32
2018-02-24T08:08:45.351Z,7.18
2018-02-24T08:11:11.941Z,8.48
2018-02-24T08:13:39.037Z,8.23
2018-02-24T08:16:06.118Z,7.37
2018-02-24T08:18:32.705Z,7.50
2018-02-24T08:20:59.294Z,5.87
2018-02-24T08:23:25.890Z,6.43
2018-02-24T08:25:52.477Z,6.45
2018-02-24T08:28:19.120Z,8.55
2018-02-24T08:30:45.743Z,7.78
2018-02-24T08:33:12.386Z,6.50
2018-02-24T08:35:38.977Z,5.18
2018-02-24T08:38:05.575Z,5.93
2018-02-24T08:40:32.161Z,7.37
2018-02-24T08:42:58.753Z,7.32
2018-02-24T08:45:25.333Z,7.03
2018-02-24T08:47:52.004Z,5.43
2018-02-24T08:50:18.637Z,6.70
2018-02-24T08:52:45.292Z,5.68
2018-02-24T08:55:11.924Z,6.95
2018-02-24T08:57:38.510Z,8.73
2018-02-24T09:00:05.105Z,7.07
2018-02-24T09:02:31.698Z,6.45
2018-02-24T09:04:58.289Z,6.40
2018-02-24T09:07:24.895Z,7.10
2018-02-24T09:09:51.490Z,5.70
2018-02-24T09:12:18.082Z,4.80
2018-02-24T09:14:44.700Z,5.87
2018-02-24T09:17:11.347Z,6.75
2018-02-24T09:19:37.931Z,6.47
2018-02-24T09:22:04.515Z,7.82
2018-02-24T09:24:31.131Z,5.82
2018-02-24T09:26:57.718Z,6.82
2018-02-24T09:29:24.311Z,8.75
2018-02-24T09:31:50.913Z,7.03
2018-02-24T09:34:17.584Z,8.52
2018-02-24T09:36:44.163Z,7.45
2018-02-24T09:39:10.763Z,5.90
2018-02-24T09:41:37.392Z,4.93
2018-02-24T09:44:04.028Z,7.70
2018-02-24T09:46:30.625Z,6.22
2018-02-24T09:48:57.199Z,4.87
2018-02-24T09:51:23.796Z,5.80
2018-02-24T09:53:50.468Z,6.15
2018-02-24T09:56:17.047Z,7.45
2018-02-24T09:58:43.692Z,4.50
2018-02-24T10:01:10.295Z,5.30
2018-02-24T10:03:36.882Z,5.97
2018-02-24T10:06:03.468Z,5.97
2018-02-24T10:08:30.098Z,6.35
2018-02-24T10:10:56.719Z,5.70
2018-02-24T10:13:23.314Z,6.00
2018-02-24T10:15:50.477Z,5.37
2018-02-24T10:18:17.158Z,5.87
2018-02-24T10:20:43.754Z,5.90
2018-02-24T10:23:10.345Z,5.45
2018-02-24T10:25:36.970Z,6.43
2018-02-24T10:28:03.543Z,5.65
2018-02-24T10:30:30.241Z,4.85
2018-02-24T10:32:56.874Z,5.15
2018-02-24T10:35:23.466Z,5.35
2018-02-24T10:37:50.070Z,7.05
2018-02-24T10:40:16.666Z,8.43
2018-02-24T10:42:43.236Z,7.28
2018-02-24T10:45:09.822Z,5.72
2018-02-24T10:47:36.479Z,8.43
2018-02-24T10:50:03.052Z,5.87
2018-02-24T10:52:29.635Z,6.37
2018-02-24T10:54:56.228Z,6.07
2018-02-24T10:57:22.830Z,5.78
2018-02-24T10:59:49.404Z,6.65
2018-02-24T11:02:15.983Z,7.40
2018-02-24T11:04:42.564Z,5.32
2018-02-24T11:07:09.174Z,6.53
2018-02-24T11:09:35.768Z,5.70
2018-02-24T11:12:02.432Z,7.10
2018-02-24T11:14:29.040Z,5.18
2018-02-24T11:16:55.693Z,7.35
2018-02-24T11:19:22.270Z,4.60
2018-02-24T11:21:48.864Z,6.22
2018-02-24T11:24:15.525Z,5.22
2018-02-24T11:26:42.131Z,5.55
2018-02-24T11:29:08.718Z,6.12
2018-02-24T11:31:35.297Z,4.80
2018-02-24T11:34:01.890Z,5.50
2018-02-24T11:36:28.478Z,6.22
2018-02-24T11:38:55.056Z,5.40
2018-02-24T11:41:21.681Z,4.47
2018-02-24T11:43:48.273Z,4.65
2018-02-24T11:46:14.857Z,6.43
2018-02-24T11:48:41.452Z,4.75
2018-02-24T11:51:08.046Z,5.07
2018-02-24T11:53:34.638Z,6.15
2018-02-24T11:56:01.217Z,5.28
2018-02-24T11:58:27.830Z,5.25
2018-02-24T12:00:54.423Z,4.93
2018-02-24T12:03:21.014Z,5.55
2018-02-24T12:05:47.599Z,4.78
2018-02-24T12:08:14.172Z,4.37
2018-02-24T12:10:40.756Z,5.78
2018-02-24T12:13:07.350Z,3.50
2018-02-24T12:15:33.976Z,4.90
2018-02-24T12:18:00.562Z,4.65
2018-02-24T12:20:27.883Z,4.82
2018-02-24T12:22:54.470Z,4.45
2018-02-24T12:25:21.134Z,4.72
2018-02-24T12:27:47.756Z,6.62
2018-02-24T12:30:14.349Z,4.45
2018-02-24T12:32:40.942Z,4.50
2018-02-24T12:35:07.559Z,3.20
2018-02-24T12:37:34.135Z,4.50
2018-02-24T12:40:00.724Z,3.92
2018-02-24T12:42:27.386Z,4.85
2018-02-24T12:44:53.986Z,4.15
2018-02-24T12:47:20.578Z,4.20
2018-02-24T12:49:48.070Z,3.70
2018-02-24T12:52:14.664Z,3.37
2018-02-24T12:54:41.352Z,7.78
2018-02-24T12:57:07.950Z,5.43
2018-02-24T12:59:34.547Z,4.93
2018-02-24T13:02:01.188Z,4.43
2018-02-24T13:04:27.764Z,4.35
2018-02-24T13:06:54.374Z,3.78
2018-02-24T13:09:20.962Z,3.70
2018-02-24T13:11:48.066Z,3.60
2018-02-24T13:14:14.647Z,3.58
2018-02-24T13:16:41.224Z,4.32
2018-02-24T13:19:07.840Z,7.93
2018-02-24T13:21:34.446Z,3.50
2018-02-24T13:24:01.129Z,3.60
2018-02-24T13:26:27.760Z,4.07
2018-02-24T13:28:54.388Z,3.47
2018-02-24T13:31:20.968Z,5.10
2018-02-24T13:33:47.549Z,3.47
2018-02-24T13:36:14.212Z,3.70
2018-02-24T13:38:40.797Z,3.20
2018-02-24T13:41:07.386Z,4.55
2018-02-24T13:43:33.967Z,3.45
2018-02-24T13:46:00.559Z,4.90
2018-02-24T13:48:27.167Z,3.42
2018-02-24T13:50:53.834Z,3.47
2018-02-24T13:53:20.431Z,3.28
2018-02-24T13:55:47.127Z,3.92
2018-02-24T13:58:13.739Z,4.65
2018-02-24T14:00:40.309Z,3.40
2018-02-24T14:03:06.969Z,3.67
2018-02-24T14:05:33.507Z,2.95
2018-02-24T14:08:00.097Z,3.05
2018-02-24T14:10:26.684Z,5.07
2018-02-24T14:12:53.259Z,3.22
2018-02-24T14:15:19.846Z,4.05
2018-02-24T14:17:46.522Z,5.22
2018-02-24T14:20:13.096Z,3.35
2018-02-24T14:22:39.672Z,3.28
2018-02-24T14:25:06.253Z,2.50
2018-02-24T14:27:32.862Z,6.15
2018-02-24T14:29:59.484Z,2.70
2018-02-24T14:32:26.066Z,2.85
2018-02-24T14:34:52.669Z,2.45
2018-02-24T14:37:19.268Z,3.35
2018-02-24T14:39:45.941Z,2.90
2018-02-24T14:42:12.590Z,2.83
2018-02-24T14:44:39.178Z,3.00
2018-02-24T14:47:05.774Z,2.90
2018-02-24T14:49:32.366Z,2.70
2018-02-24T14:51:58.937Z,2.35
2018-02-24T14:54:25.533Z,2.90
2018-02-24T14:56:52.109Z,3.15
2018-02-24T14:59:18.705Z,3.30
2018-02-24T15:01:45.342Z,2.87
2018-02-24T15:04:11.915Z,2.22
2018-02-24T15:06:38.511Z,2.75
2018-02-24T15:09:05.099Z,3.42
2018-02-24T15:11:31.796Z,3.30
2018-02-24T15:13:58.412Z,2.58
2018-02-24T15:16:25.058Z,2.65
2018-02-24T15:18:51.655Z,2.70
2018-02-24T15:21:18.262Z,2.95
2018-02-24T15:23:44.858Z,2.83
2018-02-24T15:26:11.424Z,3.10
2018-02-24T15:28:38.001Z,3.10
2018-02-24T15:31:04.587Z,3.20
2018-02-24T15:33:31.216Z,3.33
2018-02-24T15:35:57.802Z,2.72
2018-02-24T15:38:24.393Z,2.37
2018-02-24T15:40:50.971Z,2.60
2018-02-24T15:43:17.554Z,3.17
2018-02-24T15:45:44.136Z,2.10
2018-02-24T15:48:10.735Z,1.80
2018-02-24T15:50:37.378Z,2.15
2018-02-24T15:53:04.004Z,2.65
2018-02-24T15:55:30.643Z,2.60
2018-02-24T15:57:57.220Z,2.60
2018-02-24T16:00:24.634Z,1.80
2018-02-24T16:02:51.226Z,2.53
2018-02-24T16:05:17.822Z,1.30
2018-02-24T16:07:44.464Z,2.22
2018-02-24T16:10:11.066Z,2.17
2018-02-24T16:12:37.644Z,3.22
2018-02-24T16:15:04.260Z,2.90
2018-02-24T16:17:30.910Z,2.92
2018-02-24T16:19:57.495Z,2.42
2018-02-24T16:22:24.075Z,2.22
2018-02-24T16:24:50.669Z,3.65
2018-02-24T16:27:17.260Z,2.55
2018-02-24T16:29:43.841Z,2.25
2018-02-24T16:32:10.504Z,1.92
2018-02-24T16:34:37.080Z,3.15
2018-02-24T16:37:03.782Z,1.70
2018-02-24T16:39:30.415Z,2.78
2018-02-24T16:41:57.054Z,2.95
2018-02-24T16:44:23.684Z,2.00
2018-02-24T16:46:50.276Z,2.20
2018-02-24T16:49:16.873Z,2.85
2018-02-24T16:51:43.504Z,2.62
2018-02-24T16:54:11.102Z,2.75
2018-02-24T16:56:37.698Z,3.25
2018-02-24T16:59:04.291Z,3.30
2018-02-24T17:01:30.910Z,2.90
2018-02-24T17:03:57.489Z,2.10
2018-02-24T17:06:24.072Z,2.28
2018-02-24T17:08:51.468Z,2.30
2018-02-24T17:11:18.116Z,3.50
2018-02-24T17:13:44.766Z,3.67
2018-02-24T17:16:11.409Z,3.30
2018-02-24T17:18:38.000Z,2.10
2018-02-24T17:21:04.602Z,3.03
2018-02-24T17:23:31.173Z,3.75
2018-02-24T17:25:57.849Z,2.10
2018-02-24T17:28:24.439Z,2.22
2018-02-24T17:30:51.023Z,3.20
2018-02-24T17:33:17.654Z,3.42
2018-02-24T17:35:44.257Z,2.95
2018-02-24T17:38:10.828Z,3.05
2018-02-24T17:40:37.408Z,3.15
2018-02-24T17:43:04.011Z,3.67
2018-02-24T17:45:30.649Z,2.17
2018-02-24T17:47:57.263Z,2.10
2018-02-24T17:50:23.857Z,3.03
2018-02-24T17:52:50.451Z,2.90
2018-02-24T17:55:17.039Z,2.45
2018-02-24T17:57:43.611Z,1.92
2018-02-24T18:00:10.214Z,3.17
2018-02-24T18:02:36.792Z,2.85
2018-02-24T18:05:03.408Z,3.20
2018-02-24T18:07:29.985Z,2.70
2018-02-24T18:09:56.595Z,2.30
2018-02-24T18:12:23.187Z,3.00
2018-02-24T18:14:49.756Z,2.30
2018-02-24T18:17:16.350Z,2.40
2018-02-24T18:19:42.942Z,2.58
2018-02-24T18:22:09.554Z,3.40
2018-02-24T18:24:36.184Z,2.20
2018-02-24T18:27:02.825Z,3.67
2018-02-24T18:29:29.349Z,3.33
2018-02-24T18:31:55.919Z,2.28
2018-02-24T18:34:22.514Z,2.45
2018-02-24T18:36:49.183Z,3.37
2018-02-24T18:39:15.756Z,2.55
2018-02-24T18:41:42.441Z,1.70
2018-02-24T18:44:09.024Z,2.08
2018-02-24T18:46:35.600Z,2.45
2018-02-24T18:49:02.194Z,2.17
2018-02-24T18:51:28.768Z,2.60
2018-02-24T18:53:55.450Z,3.30
2018-02-24T18:56:22.038Z,2.22
2018-02-24T18:58:48.630Z,2.37
2018-02-24T19:01:15.242Z,2.95
2018-02-24T19:03:41.830Z,2.65
2018-02-24T19:06:08.514Z,1.55
2018-02-24T19:08:35.098Z,2.00
2018-02-24T19:11:01.695Z,2.55
2018-02-24T19:13:28.321Z,2.03
2018-02-24T19:15:54.929Z,2.62
2018-02-24T19:18:21.504Z,1.98
2018-02-24T19:20:48.102Z,1.90
2018-02-24T19:23:14.695Z,2.15
2018-02-24T19:25:41.915Z,2.90
2018-02-24T19:28:09.429Z,2.10
2018-02-24T19:30:36.031Z,1.65
2018-02-24T19:33:02.624Z,1.52
2018-02-24T19:35:29.200Z,3.12
2018-02-24T19:37:55.795Z,1.50
2018-02-24T19:40:22.368Z,1.85
2018-02-24T19:42:48.950Z,1.70
2018-02-24T19:45:15.622Z,1.95
2018-02-24T19:47:42.192Z,2.40
2018-02-24T19:50:08.768Z,1.95
2018-02-24T19:52:35.383Z,2.28
2018-02-24T19:55:01.962Z,2.05
2018-02-24T19:57:28.557Z,2.03
2018-02-24T19:59:55.224Z,1.70
2018-02-24T20:02:21.796Z,1.37
2018-02-24T20:04:48.384Z,1.50
2018-02-24T20:07:14.970Z,1.50
2018-02-24T20:09:41.568Z,1.37
2018-02-24T20:12:08.222Z,2.00
2018-02-24T20:14:34.940Z,1.85
2018-02-24T20:17:01.564Z,2.45
2018-02-24T20:19:28.145Z,1.50
2018-02-24T20:21:54.748Z,1.87
2018-02-24T20:24:21.324Z,2.20
2018-02-24T20:26:47.910Z,1.58
2018-02-24T20:29:14.503Z,2.53
2018-02-24T20:31:41.095Z,1.60
2018-02-24T20:34:07.738Z,1.98
2018-02-24T20:36:34.360Z,2.95
2018-02-24T20:39:00.936Z,2.50
2018-02-24T20:41:27.534Z,1.85
2018-02-24T20:43:54.186Z,1.70
2018-02-24T20:46:20.763Z,1.95
2018-02-24T20:48:47.344Z,1.95
2018-02-24T20:51:13.990Z,1.40
2018-02-24T20:53:40.580Z,2.00
2018-02-24T20:56:07.148Z,2.00
2018-02-24T20:58:33.725Z,2.28
2018-02-24T21:01:00.299Z,2.65
2018-02-24T21:03:26.913Z,2.05
2018-02-24T21:05:53.587Z,1.90
2018-02-24T21:08:20.225Z,3.20
2018-02-24T21:10:46.800Z,1.85
2018-02-24T21:13:13.381Z,1.55
2018-02-24T21:15:39.959Z,1.60
2018-02-24T21:18:06.568Z,1.12
2018-02-24T21:20:33.144Z,2.08
2018-02-24T21:23:00.573Z,1.65
2018-02-24T21:25:27.161Z,1.50
2018-02-24T21:27:53.749Z,1.73
2018-02-24T21:30:20.390Z,1.65
2018-02-24T21:32:46.991Z,2.08
2018-02-24T21:35:13.569Z,1.90
2018-02-24T21:37:40.171Z,1.95
2018-02-24T21:40:06.748Z,1.62
2018-02-24T21:42:33.342Z,2.10
2018-02-24T21:44:59.931Z,1.62
2018-02-24T21:47:26.538Z,2.37
2018-02-24T21:49:53.157Z,1.65
2018-02-24T21:52:19.802Z,2.78
2018-02-24T21:54:46.394Z,1.98
2018-02-24T21:57:13.135Z,3.05
2018-02-24T21:59:39.718Z,1.48
2018-02-24T22:02:06.336Z,2.10
2018-02-24T22:04:32.923Z,2.45
2018-02-24T22:06:59.514Z,2.12
2018-02-24T22:09:26.110Z,1.65
2018-02-24T22:11:52.777Z,2.67
2018-02-24T22:14:19.428Z,2.30
2018-02-24T22:16:46.292Z,1.95
2018-02-24T22:19:12.874Z,1.85
2018-02-24T22:21:39.534Z,1.55
2018-02-24T22:24:06.163Z,1.80
2018-02-24T22:26:32.761Z,1.30
2018-02-24T22:28:59.342Z,2.00
2018-02-24T22:31:25.920Z,1.65
2018-02-24T22:33:52.509Z,1.80
2018-02-24T22:36:19.102Z,1.55
2018-02-24T22:38:45.675Z,1.95
2018-02-24T22:41:12.312Z,1.70
2018-02-24T22:43:38.899Z,2.53
2018-02-24T22:46:05.498Z,2.33
2018-02-24T22:48:37.881Z,2.62
2018-02-24T22:51:04.520Z,3.60
2018-02-24T22:53:31.099Z,1.87
2018-02-24T22:55:57.676Z,2.20
2018-02-24T22:58:24.299Z,2.30
2018-02-24T23:00:50.888Z,2.25
2018-02-24T23:03:17.590Z,1.90
2018-02-24T23:05:44.178Z,2.85
2018-02-24T23:08:10.768Z,1.20
2018-02-24T23:10:37.380Z,1.58
2018-02-24T23:13:04.036Z,1.10
2018-02-24T23:15:30.628Z,1.85
2018-02-24T23:17:57.302Z,1.10
2018-02-24T23:20:23.944Z,2.20
2018-02-24T23:22:50.578Z,1.85
2018-02-24T23:25:17.196Z,1.85
2018-02-24T23:27:43.785Z,1.08
2018-02-24T23:30:10.360Z,1.67
2018-02-24T23:32:36.950Z,2.10
2018-02-24T23:35:03.535Z,1.75
2018-02-24T23:37:30.182Z,1.40
2018-02-24T23:39:56.792Z,1.95
2018-02-24T23:42:23.381Z,1.67
2018-02-24T23:44:50.002Z,1.25
2018-02-24T23:47:16.582Z,1.52
2018-02-24T23:49:43.274Z,1.50
2018-02-24T23:52:09.904Z,1.48
2018-02-24T23:54:36.480Z,2.00
2018-02-24T23:57:03.186Z,1.90
2018-02-24T23:59:29.777Z,1.45
